NDF9220 EDDH-LGTS
Flight info
| Callsign | NDF9220 |
|---|---|
| Flight time | 2h 22m |
| Altitude | 39000 |
| Route | AMLUH2G/33 AMLUH M852 DENIX DCT ZUCKA DCT SODRO DCT ARMUT DCT LAMSI DCT LURID DCT PODOB DCT MEDUX UM867 KOGAT DCT ERANA UT389 ALIKO ALIKO2H |
| Aircraft | A20N/M-SDE2E3FGHIRWXY/LB1 |
Departure
| Time | 2026-04-26 10:22 |
|---|---|
| Airport | Hamburg Helmut Schmidt Airport (EDDH) |
Arrival
| Time | 2026-04-26 12:45 |
|---|---|
| Airport | Thessaloniki Macedonia International Airport (LGTS) |
| Time | Latitude | Longitude | Altitude | Speed | Heading |
|---|---|---|---|---|---|
| 2026-04-26 09:45 | 53.63206 | 10.00361 | 48 ft | 0 kts | 86° |
| 2026-04-26 10:16 | 53.63206 | 10.00360 | 48 ft | 0 kts | 86° |
| 2026-04-26 10:17 | 53.63204 | 10.00320 | 48 ft | 3 kts | 86° |
| 2026-04-26 10:17 | 53.63205 | 10.00279 | 48 ft | 4 kts | 110° |
| 2026-04-26 10:17 | 53.63219 | 10.00247 | 42 ft | 4 kts | 168° |
| 2026-04-26 10:17 | 53.63224 | 10.00246 | 42 ft | 0 kts | 176° |
| 2026-04-26 10:19 | 53.63179 | 10.00250 | 48 ft | 16 kts | 176° |
| 2026-04-26 10:19 | 53.63052 | 10.00242 | 48 ft | 18 kts | 207° |
| 2026-04-26 10:20 | 53.62948 | 10.00136 | 48 ft | 17 kts | 213° |
| 2026-04-26 10:20 | 53.62868 | 10.00032 | 48 ft | 13 kts | 232° |
| 2026-04-26 10:20 | 53.62818 | 9.99878 | 43 ft | 17 kts | 246° |
| 2026-04-26 10:20 | 53.62814 | 9.99809 | 45 ft | 2 kts | 294° |
| 2026-04-26 10:21 | 53.62831 | 9.99777 | 43 ft | 5 kts | 335° |
| 2026-04-26 10:21 | 53.62838 | 9.99771 | 44 ft | 0 kts | 330° |
| 2026-04-26 10:21 | 53.63052 | 9.99581 | 45 ft | 72 kts | 332° |
| 2026-04-26 10:22 | 53.63686 | 9.99033 | 48 ft | 131 kts | 333° |
| 2026-04-26 10:22 | 53.64629 | 9.98219 | 157 ft | 166 kts | 332° |
| 2026-04-26 10:22 | 53.65688 | 9.97295 | 653 ft | 177 kts | 332° |
| 2026-04-26 10:22 | 53.66832 | 9.96308 | 1258 ft | 192 kts | 331° |
| 2026-04-26 10:23 | 53.67998 | 9.95346 | 1818 ft | 204 kts | 332° |
| 2026-04-26 10:23 | 53.69257 | 9.94558 | 2453 ft | 219 kts | 351° |
| 2026-04-26 10:23 | 53.70767 | 9.94654 | 3637 ft | 210 kts | 0° |
| 2026-04-26 10:23 | 53.72197 | 9.94798 | 4767 ft | 210 kts | 5° |
| 2026-04-26 10:24 | 53.73604 | 9.95679 | 5795 ft | 221 kts | 32° |
| 2026-04-26 10:24 | 53.74601 | 9.97654 | 6813 ft | 232 kts | 62° |
| 2026-04-26 10:24 | 53.74884 | 10.00375 | 7659 ft | 247 kts | 94° |
| 2026-04-26 10:24 | 53.74407 | 10.03227 | 8526 ft | 257 kts | 112° |
| 2026-04-26 10:25 | 53.73512 | 10.05914 | 9376 ft | 269 kts | 121° |
| 2026-04-26 10:25 | 53.72495 | 10.08726 | 9874 ft | 293 kts | 119° |
| 2026-04-26 10:25 | 53.71425 | 10.11831 | 10364 ft | 316 kts | 118° |
| 2026-04-26 10:25 | 53.70312 | 10.15138 | 10852 ft | 336 kts | 118° |
| 2026-04-26 10:26 | 53.69001 | 10.18508 | 11209 ft | 361 kts | 132° |
| 2026-04-26 10:26 | 53.66950 | 10.21142 | 11778 ft | 371 kts | 156° |
| 2026-04-26 10:26 | 53.64674 | 10.22451 | 12571 ft | 372 kts | 168° |
| 2026-04-26 10:26 | 53.62091 | 10.23586 | 13436 ft | 377 kts | 169° |
| 2026-04-26 10:27 | 53.59531 | 10.24689 | 14290 ft | 381 kts | 169° |
| 2026-04-26 10:27 | 53.56986 | 10.25808 | 15044 ft | 386 kts | 168° |
| 2026-04-26 10:27 | 53.54376 | 10.26982 | 15819 ft | 389 kts | 168° |
| 2026-04-26 10:27 | 53.51749 | 10.28178 | 16578 ft | 394 kts | 168° |
| 2026-04-26 10:28 | 53.49097 | 10.29392 | 17319 ft | 398 kts | 168° |
| 2026-04-26 10:28 | 53.46419 | 10.30616 | 18049 ft | 402 kts | 168° |
| 2026-04-26 10:28 | 53.43820 | 10.31803 | 18731 ft | 406 kts | 168° |
| 2026-04-26 10:28 | 53.41142 | 10.33020 | 19336 ft | 410 kts | 168° |
| 2026-04-26 10:29 | 53.38378 | 10.34270 | 19977 ft | 414 kts | 168° |
| 2026-04-26 10:29 | 53.35584 | 10.35528 | 20618 ft | 417 kts | 168° |
| 2026-04-26 10:29 | 53.32824 | 10.36769 | 21229 ft | 421 kts | 168° |
| 2026-04-26 10:29 | 53.29976 | 10.38046 | 21850 ft | 424 kts | 168° |
| 2026-04-26 10:30 | 53.27360 | 10.39218 | 22400 ft | 428 kts | 168° |
| 2026-04-26 10:30 | 53.24256 | 10.40604 | 23054 ft | 432 kts | 168° |
| 2026-04-26 10:30 | 53.21414 | 10.41873 | 23645 ft | 435 kts | 168° |
| 2026-04-26 10:30 | 53.18417 | 10.43209 | 24193 ft | 439 kts | 168° |
| 2026-04-26 10:31 | 53.15493 | 10.44513 | 24714 ft | 441 kts | 168° |
| 2026-04-26 10:31 | 53.12506 | 10.45808 | 25225 ft | 443 kts | 172° |
| 2026-04-26 10:31 | 53.09481 | 10.46769 | 25705 ft | 445 kts | 173° |
| 2026-04-26 10:31 | 53.06483 | 10.47691 | 26192 ft | 447 kts | 173° |
| 2026-04-26 10:32 | 53.03403 | 10.48643 | 26677 ft | 450 kts | 173° |
| 2026-04-26 10:32 | 53.00312 | 10.49602 | 27149 ft | 453 kts | 173° |
| 2026-04-26 10:32 | 52.97231 | 10.50558 | 27598 ft | 456 kts | 173° |
| 2026-04-26 10:32 | 52.94825 | 10.51304 | 27944 ft | 458 kts | 173° |
| 2026-04-26 10:33 | 52.91624 | 10.52297 | 28390 ft | 460 kts | 173° |
| 2026-04-26 10:33 | 52.88487 | 10.53269 | 28805 ft | 463 kts | 174° |
| 2026-04-26 10:33 | 52.86781 | 10.53796 | 29012 ft | 464 kts | 173° |
| 2026-04-26 10:33 | 52.84620 | 10.54462 | 29293 ft | 466 kts | 174° |
| 2026-04-26 10:34 | 52.83128 | 10.54921 | 29479 ft | 467 kts | 174° |
| 2026-04-26 10:34 | 52.81276 | 10.55492 | 29702 ft | 469 kts | 174° |
| 2026-04-26 10:34 | 52.78406 | 10.56377 | 30051 ft | 471 kts | 174° |
| 2026-04-26 10:35 | 52.75168 | 10.57373 | 30417 ft | 473 kts | 174° |
| 2026-04-26 10:35 | 52.71942 | 10.58363 | 30738 ft | 476 kts | 174° |
| 2026-04-26 10:35 | 52.68662 | 10.59368 | 31075 ft | 478 kts | 173° |
| 2026-04-26 10:35 | 52.65401 | 10.60365 | 31422 ft | 479 kts | 173° |
| 2026-04-26 10:36 | 52.62119 | 10.61368 | 31838 ft | 479 kts | 173° |
| 2026-04-26 10:36 | 52.58832 | 10.62372 | 32283 ft | 478 kts | 173° |
| 2026-04-26 10:36 | 52.55568 | 10.63367 | 32716 ft | 477 kts | 173° |
| 2026-04-26 10:36 | 52.52307 | 10.64359 | 33154 ft | 476 kts | 173° |
| 2026-04-26 10:37 | 52.49047 | 10.65349 | 33571 ft | 475 kts | 173° |
| 2026-04-26 10:37 | 52.45805 | 10.66331 | 33986 ft | 474 kts | 173° |
| 2026-04-26 10:37 | 52.42564 | 10.67311 | 34347 ft | 474 kts | 173° |
| 2026-04-26 10:37 | 52.39321 | 10.68291 | 34687 ft | 473 kts | 173° |
| 2026-04-26 10:38 | 52.36110 | 10.69260 | 35022 ft | 472 kts | 173° |
| 2026-04-26 10:38 | 52.32925 | 10.70219 | 35335 ft | 472 kts | 173° |
| 2026-04-26 10:38 | 52.29743 | 10.71177 | 35625 ft | 471 kts | 173° |
| 2026-04-26 10:38 | 52.26521 | 10.72144 | 35925 ft | 471 kts | 173° |
| 2026-04-26 10:39 | 52.23388 | 10.73082 | 36223 ft | 470 kts | 173° |
| 2026-04-26 10:39 | 52.20118 | 10.74062 | 36518 ft | 470 kts | 173° |
| 2026-04-26 10:39 | 52.16928 | 10.75015 | 36776 ft | 469 kts | 173° |
| 2026-04-26 10:39 | 52.13706 | 10.75976 | 37035 ft | 469 kts | 173° |
| 2026-04-26 10:40 | 52.10626 | 10.76894 | 37304 ft | 468 kts | 173° |
| 2026-04-26 10:40 | 52.07530 | 10.77816 | 37569 ft | 467 kts | 173° |
| 2026-04-26 10:40 | 52.04482 | 10.78722 | 37782 ft | 467 kts | 173° |
| 2026-04-26 10:40 | 52.01324 | 10.79660 | 38023 ft | 466 kts | 173° |
| 2026-04-26 10:41 | 51.98162 | 10.80598 | 38259 ft | 466 kts | 173° |
| 2026-04-26 10:41 | 51.94975 | 10.81541 | 38493 ft | 465 kts | 173° |
| 2026-04-26 10:41 | 51.91794 | 10.82482 | 38717 ft | 465 kts | 173° |
| 2026-04-26 10:41 | 51.88619 | 10.83419 | 38926 ft | 464 kts | 173° |
| 2026-04-26 10:42 | 51.85447 | 10.84355 | 39106 ft | 464 kts | 173° |
| 2026-04-26 10:42 | 51.82306 | 10.85280 | 39250 ft | 464 kts | 173° |
| 2026-04-26 10:42 | 51.75980 | 10.87138 | 39310 ft | 463 kts | 173° |
| 2026-04-26 10:43 | 51.69662 | 10.89122 | 39312 ft | 465 kts | 168° |
| 2026-04-26 10:43 | 51.63621 | 10.92541 | 39308 ft | 469 kts | 157° |
| 2026-04-26 10:44 | 51.58064 | 10.96974 | 39310 ft | 470 kts | 156° |
| 2026-04-26 10:44 | 51.52106 | 11.01703 | 39309 ft | 470 kts | 156° |
| 2026-04-26 10:45 | 51.46238 | 11.06315 | 39313 ft | 471 kts | 156° |
| 2026-04-26 10:45 | 51.40345 | 11.10930 | 39312 ft | 471 kts | 156° |
| 2026-04-26 10:46 | 51.34439 | 11.15543 | 39319 ft | 471 kts | 156° |
| 2026-04-26 10:46 | 51.28589 | 11.20099 | 39321 ft | 471 kts | 156° |
| 2026-04-26 10:47 | 51.22683 | 11.24686 | 39310 ft | 471 kts | 156° |
| 2026-04-26 10:47 | 51.16809 | 11.29234 | 39314 ft | 469 kts | 156° |
| 2026-04-26 10:48 | 51.10936 | 11.33769 | 39313 ft | 469 kts | 156° |
| 2026-04-26 10:48 | 51.05072 | 11.38284 | 39312 ft | 468 kts | 156° |
| 2026-04-26 10:49 | 50.99245 | 11.42758 | 39309 ft | 468 kts | 156° |
| 2026-04-26 10:49 | 50.93419 | 11.47219 | 39303 ft | 468 kts | 156° |
| 2026-04-26 10:50 | 50.88534 | 11.50949 | 39302 ft | 467 kts | 156° |
| 2026-04-26 10:50 | 50.81698 | 11.56157 | 39298 ft | 467 kts | 156° |
| 2026-04-26 10:51 | 50.78770 | 11.58382 | 39299 ft | 466 kts | 156° |
| 2026-04-26 10:52 | 50.77897 | 11.59045 | 39298 ft | 466 kts | 156° |
| 2026-04-26 10:52 | 50.72405 | 11.63206 | 39295 ft | 466 kts | 156° |
| 2026-04-26 10:53 | 50.66480 | 11.67695 | 39287 ft | 466 kts | 157° |
| 2026-04-26 10:53 | 50.60633 | 11.72097 | 39288 ft | 465 kts | 157° |
| 2026-04-26 10:54 | 50.51909 | 11.78651 | 39285 ft | 466 kts | 157° |
| 2026-04-26 10:54 | 50.46058 | 11.83034 | 39284 ft | 466 kts | 158° |
| 2026-04-26 10:55 | 50.40137 | 11.87127 | 39283 ft | 465 kts | 160° |
| 2026-04-26 10:55 | 50.35191 | 11.90407 | 39286 ft | 466 kts | 160° |
| 2026-04-26 10:56 | 50.28225 | 11.95077 | 39290 ft | 466 kts | 160° |
| 2026-04-26 10:56 | 50.22264 | 11.99090 | 39292 ft | 467 kts | 160° |
| 2026-04-26 10:57 | 50.16330 | 12.03075 | 39294 ft | 467 kts | 161° |
| 2026-04-26 10:57 | 50.10359 | 12.07073 | 39302 ft | 467 kts | 161° |
| 2026-04-26 10:58 | 50.04405 | 12.11049 | 39276 ft | 465 kts | 161° |
| 2026-04-26 10:58 | 49.98456 | 12.15010 | 39252 ft | 465 kts | 161° |
| 2026-04-26 10:59 | 49.92517 | 12.18956 | 39249 ft | 465 kts | 161° |
| 2026-04-26 10:59 | 49.86578 | 12.22888 | 39268 ft | 464 kts | 161° |
| 2026-04-26 11:00 | 49.80677 | 12.26787 | 39268 ft | 464 kts | 161° |
| 2026-04-26 11:00 | 49.74758 | 12.30753 | 39245 ft | 465 kts | 158° |
| 2026-04-26 11:01 | 49.69197 | 12.35951 | 39249 ft | 470 kts | 146° |
| 2026-04-26 11:01 | 49.64050 | 12.42216 | 39257 ft | 472 kts | 145° |
| 2026-04-26 11:02 | 49.58932 | 12.48421 | 39261 ft | 471 kts | 145° |
| 2026-04-26 11:02 | 49.53775 | 12.54625 | 39242 ft | 470 kts | 145° |
| 2026-04-26 11:03 | 49.48617 | 12.60805 | 39252 ft | 470 kts | 145° |
| 2026-04-26 11:03 | 49.43462 | 12.66967 | 39245 ft | 469 kts | 145° |
| 2026-04-26 11:04 | 49.38302 | 12.73118 | 39248 ft | 468 kts | 145° |
| 2026-04-26 11:04 | 49.33159 | 12.79231 | 39234 ft | 468 kts | 145° |
| 2026-04-26 11:05 | 49.28051 | 12.85286 | 39239 ft | 467 kts | 145° |
| 2026-04-26 11:05 | 49.22920 | 12.91354 | 39230 ft | 467 kts | 146° |
| 2026-04-26 11:06 | 49.18637 | 12.96405 | 39230 ft | 467 kts | 146° |
| 2026-04-26 11:06 | 49.12628 | 13.03472 | 39225 ft | 466 kts | 146° |
| 2026-04-26 11:07 | 49.07532 | 13.09449 | 39226 ft | 466 kts | 146° |
| 2026-04-26 11:07 | 49.02386 | 13.15467 | 39224 ft | 466 kts | 146° |
| 2026-04-26 11:08 | 48.97229 | 13.21484 | 39223 ft | 466 kts | 146° |
| 2026-04-26 11:08 | 48.92071 | 13.27485 | 39222 ft | 467 kts | 146° |
| 2026-04-26 11:09 | 48.86921 | 13.33462 | 39222 ft | 467 kts | 146° |
| 2026-04-26 11:09 | 48.81777 | 13.39415 | 39224 ft | 467 kts | 146° |
| 2026-04-26 11:10 | 48.76609 | 13.45381 | 39227 ft | 467 kts | 146° |
| 2026-04-26 11:10 | 48.71427 | 13.51346 | 39223 ft | 467 kts | 146° |
| 2026-04-26 11:11 | 48.66254 | 13.57288 | 39226 ft | 468 kts | 146° |
| 2026-04-26 11:11 | 48.61089 | 13.63287 | 39228 ft | 468 kts | 145° |
| 2026-04-26 11:12 | 48.55952 | 13.69356 | 39226 ft | 469 kts | 145° |
| 2026-04-26 11:12 | 48.50843 | 13.75370 | 39227 ft | 469 kts | 145° |
| 2026-04-26 11:13 | 48.45703 | 13.81396 | 39239 ft | 469 kts | 146° |
| 2026-04-26 11:13 | 48.40544 | 13.87422 | 39220 ft | 469 kts | 146° |
| 2026-04-26 11:14 | 48.35382 | 13.93431 | 39214 ft | 469 kts | 146° |
| 2026-04-26 11:14 | 48.31094 | 13.98411 | 39207 ft | 469 kts | 146° |
| 2026-04-26 11:15 | 48.25095 | 14.05359 | 39220 ft | 469 kts | 146° |
| 2026-04-26 11:15 | 48.19919 | 14.11338 | 39217 ft | 469 kts | 146° |
| 2026-04-26 11:16 | 48.14750 | 14.17293 | 39213 ft | 469 kts | 146° |
| 2026-04-26 11:16 | 48.09578 | 14.23237 | 39212 ft | 469 kts | 146° |
| 2026-04-26 11:17 | 48.04387 | 14.29185 | 39216 ft | 469 kts | 146° |
| 2026-04-26 11:17 | 47.99226 | 14.35084 | 39214 ft | 468 kts | 146° |
| 2026-04-26 11:18 | 47.94077 | 14.40955 | 39212 ft | 468 kts | 146° |
| 2026-04-26 11:18 | 47.89751 | 14.45875 | 39211 ft | 468 kts | 146° |
| 2026-04-26 11:19 | 47.83937 | 14.52471 | 39207 ft | 467 kts | 146° |
| 2026-04-26 11:19 | 47.78760 | 14.58328 | 39196 ft | 466 kts | 146° |
| 2026-04-26 11:20 | 47.74475 | 14.63162 | 39192 ft | 466 kts | 146° |
| 2026-04-26 11:20 | 47.68467 | 14.69927 | 39185 ft | 465 kts | 146° |
| 2026-04-26 11:21 | 47.63316 | 14.75711 | 39180 ft | 465 kts | 146° |
| 2026-04-26 11:21 | 47.58148 | 14.81500 | 39173 ft | 465 kts | 146° |
| 2026-04-26 11:22 | 47.52989 | 14.87263 | 39160 ft | 464 kts | 146° |
| 2026-04-26 11:22 | 47.47843 | 14.92998 | 39150 ft | 464 kts | 146° |
| 2026-04-26 11:23 | 47.42675 | 14.98743 | 39151 ft | 465 kts | 146° |
| 2026-04-26 11:23 | 47.37533 | 15.04444 | 39146 ft | 466 kts | 146° |
| 2026-04-26 11:24 | 47.32341 | 15.10186 | 39150 ft | 467 kts | 146° |
| 2026-04-26 11:24 | 47.27146 | 15.15917 | 39138 ft | 467 kts | 146° |
| 2026-04-26 11:25 | 47.21944 | 15.21639 | 39128 ft | 467 kts | 146° |
| 2026-04-26 11:25 | 47.16767 | 15.27323 | 39125 ft | 467 kts | 146° |
| 2026-04-26 11:26 | 47.12402 | 15.32103 | 39129 ft | 468 kts | 146° |
| 2026-04-26 11:26 | 47.06315 | 15.38754 | 39121 ft | 469 kts | 146° |
| 2026-04-26 11:27 | 47.01107 | 15.44430 | 39128 ft | 467 kts | 146° |
| 2026-04-26 11:27 | 46.96777 | 15.49136 | 39129 ft | 467 kts | 146° |
| 2026-04-26 11:28 | 46.91552 | 15.54801 | 39125 ft | 467 kts | 146° |
| 2026-04-26 11:28 | 46.86328 | 15.60450 | 39128 ft | 467 kts | 146° |
| 2026-04-26 11:29 | 46.81117 | 15.66076 | 39125 ft | 467 kts | 146° |
| 2026-04-26 11:29 | 46.75889 | 15.71705 | 39133 ft | 467 kts | 146° |
| 2026-04-26 11:30 | 46.70651 | 15.77330 | 39138 ft | 468 kts | 146° |
| 2026-04-26 11:30 | 46.65405 | 15.82949 | 39142 ft | 468 kts | 146° |
| 2026-04-26 11:31 | 46.60201 | 15.88510 | 39139 ft | 467 kts | 146° |
| 2026-04-26 11:31 | 46.54950 | 15.94107 | 39146 ft | 467 kts | 146° |
| 2026-04-26 11:32 | 46.49735 | 15.99651 | 39148 ft | 467 kts | 146° |
| 2026-04-26 11:32 | 46.44473 | 16.05233 | 39145 ft | 465 kts | 146° |
| 2026-04-26 11:33 | 46.39252 | 16.10758 | 39149 ft | 465 kts | 146° |
| 2026-04-26 11:33 | 46.34024 | 16.16277 | 39152 ft | 465 kts | 146° |
| 2026-04-26 11:34 | 46.28830 | 16.21744 | 39169 ft | 465 kts | 145° |
| 2026-04-26 11:34 | 46.23602 | 16.27230 | 39151 ft | 464 kts | 145° |
| 2026-04-26 11:35 | 46.18381 | 16.32703 | 39150 ft | 463 kts | 145° |
| 2026-04-26 11:35 | 46.13203 | 16.38118 | 39151 ft | 463 kts | 145° |
| 2026-04-26 11:36 | 46.07994 | 16.43551 | 39144 ft | 463 kts | 145° |
| 2026-04-26 11:36 | 46.02773 | 16.48983 | 39144 ft | 462 kts | 145° |
| 2026-04-26 11:37 | 45.97591 | 16.54362 | 39144 ft | 462 kts | 145° |
| 2026-04-26 11:37 | 45.92388 | 16.59753 | 39140 ft | 462 kts | 145° |
| 2026-04-26 11:38 | 45.87190 | 16.65124 | 39136 ft | 462 kts | 145° |
| 2026-04-26 11:38 | 45.81974 | 16.70501 | 39135 ft | 462 kts | 145° |
| 2026-04-26 11:39 | 45.76767 | 16.75855 | 39139 ft | 462 kts | 145° |
| 2026-04-26 11:39 | 45.71531 | 16.81228 | 39135 ft | 462 kts | 145° |
| 2026-04-26 11:40 | 45.66303 | 16.86583 | 39129 ft | 462 kts | 145° |
| 2026-04-26 11:40 | 45.61071 | 16.91925 | 39131 ft | 462 kts | 145° |
| 2026-04-26 11:42 | 45.40116 | 17.13200 | 39138 ft | 463 kts | 146° |
| 2026-04-26 11:43 | 45.34870 | 17.18495 | 39135 ft | 463 kts | 146° |
| 2026-04-26 11:43 | 45.29601 | 17.23801 | 39138 ft | 463 kts | 146° |
| 2026-04-26 11:44 | 45.24349 | 17.29079 | 39134 ft | 463 kts | 146° |
| 2026-04-26 11:44 | 45.19116 | 17.34331 | 39131 ft | 463 kts | 146° |
| 2026-04-26 11:45 | 45.13863 | 17.39591 | 39132 ft | 463 kts | 146° |
| 2026-04-26 11:45 | 45.08774 | 17.45076 | 39131 ft | 463 kts | 141° |
| 2026-04-26 11:46 | 45.03759 | 17.50846 | 39133 ft | 462 kts | 142° |
| 2026-04-26 11:46 | 44.98766 | 17.56501 | 39134 ft | 462 kts | 142° |
| 2026-04-26 11:47 | 44.93736 | 17.62136 | 39131 ft | 462 kts | 142° |
| 2026-04-26 11:47 | 44.88703 | 17.67753 | 39132 ft | 461 kts | 142° |
| 2026-04-26 11:48 | 44.83657 | 17.73374 | 39133 ft | 461 kts | 142° |
| 2026-04-26 11:48 | 44.78658 | 17.78931 | 39127 ft | 461 kts | 142° |
| 2026-04-26 11:49 | 44.73640 | 17.84496 | 39127 ft | 460 kts | 142° |
| 2026-04-26 11:49 | 44.68600 | 17.90072 | 39124 ft | 460 kts | 142° |
| 2026-04-26 11:50 | 44.63572 | 17.95624 | 39126 ft | 460 kts | 142° |
| 2026-04-26 11:50 | 44.58534 | 18.01173 | 39126 ft | 460 kts | 142° |
| 2026-04-26 11:51 | 44.53539 | 18.06661 | 39127 ft | 459 kts | 142° |
| 2026-04-26 11:51 | 44.48506 | 18.12180 | 39124 ft | 459 kts | 142° |
| 2026-04-26 11:52 | 44.43476 | 18.17684 | 39123 ft | 459 kts | 142° |
| 2026-04-26 11:52 | 44.38444 | 18.23177 | 39122 ft | 459 kts | 143° |
| 2026-04-26 11:53 | 44.33405 | 18.28666 | 39126 ft | 459 kts | 143° |
| 2026-04-26 11:54 | 44.25895 | 18.36821 | 39125 ft | 459 kts | 143° |
| 2026-04-26 11:54 | 44.20840 | 18.42296 | 39126 ft | 459 kts | 143° |
| 2026-04-26 11:55 | 44.15792 | 18.47751 | 39125 ft | 459 kts | 143° |
| 2026-04-26 11:55 | 44.10737 | 18.53203 | 39120 ft | 459 kts | 143° |
| 2026-04-26 11:56 | 44.05716 | 18.58605 | 39125 ft | 460 kts | 143° |
| 2026-04-26 11:56 | 44.00658 | 18.64035 | 39127 ft | 460 kts | 143° |
| 2026-04-26 11:57 | 43.95591 | 18.69462 | 39125 ft | 460 kts | 143° |
| 2026-04-26 11:57 | 43.90539 | 18.74861 | 39124 ft | 460 kts | 143° |
| 2026-04-26 11:58 | 43.85461 | 18.80276 | 39125 ft | 460 kts | 143° |
| 2026-04-26 11:58 | 43.80420 | 18.85640 | 39116 ft | 460 kts | 143° |
| 2026-04-26 11:59 | 43.75355 | 18.91018 | 39116 ft | 459 kts | 143° |
| 2026-04-26 11:59 | 43.70281 | 18.96393 | 39121 ft | 459 kts | 143° |
| 2026-04-26 12:00 | 43.65202 | 19.01761 | 39111 ft | 460 kts | 143° |
| 2026-04-26 12:00 | 43.60149 | 19.07091 | 39110 ft | 460 kts | 144° |
| 2026-04-26 12:01 | 43.55067 | 19.12444 | 39116 ft | 460 kts | 144° |
| 2026-04-26 12:01 | 43.50050 | 19.17852 | 39099 ft | 460 kts | 141° |
| 2026-04-26 12:02 | 43.45136 | 19.23516 | 39103 ft | 460 kts | 141° |
| 2026-04-26 12:02 | 43.40242 | 19.29116 | 39100 ft | 460 kts | 141° |
| 2026-04-26 12:03 | 43.35363 | 19.34644 | 39093 ft | 460 kts | 142° |
| 2026-04-26 12:03 | 43.30371 | 19.40280 | 39092 ft | 460 kts | 142° |
| 2026-04-26 12:04 | 43.25415 | 19.45864 | 39093 ft | 460 kts | 142° |
| 2026-04-26 12:04 | 43.20508 | 19.51379 | 39092 ft | 461 kts | 142° |
| 2026-04-26 12:05 | 43.15520 | 19.56973 | 39094 ft | 462 kts | 142° |
| 2026-04-26 12:05 | 43.10540 | 19.62545 | 39087 ft | 462 kts | 142° |
| 2026-04-26 12:06 | 43.05556 | 19.68114 | 39085 ft | 463 kts | 142° |
| 2026-04-26 12:06 | 43.00576 | 19.73663 | 39087 ft | 463 kts | 142° |
| 2026-04-26 12:07 | 42.95573 | 19.79226 | 39076 ft | 463 kts | 142° |
| 2026-04-26 12:07 | 42.90602 | 19.84742 | 39079 ft | 463 kts | 142° |
| 2026-04-26 12:08 | 42.85597 | 19.90283 | 39082 ft | 464 kts | 142° |
| 2026-04-26 12:08 | 42.80580 | 19.95826 | 39084 ft | 465 kts | 142° |
| 2026-04-26 12:09 | 42.75604 | 20.01454 | 39077 ft | 466 kts | 138° |
| 2026-04-26 12:09 | 42.71258 | 20.08012 | 39076 ft | 468 kts | 130° |
| 2026-04-26 12:10 | 42.67165 | 20.14812 | 39068 ft | 469 kts | 130° |
| 2026-04-26 12:10 | 42.63008 | 20.21664 | 39077 ft | 470 kts | 130° |
| 2026-04-26 12:11 | 42.58847 | 20.28500 | 39054 ft | 469 kts | 130° |
| 2026-04-26 12:11 | 42.54692 | 20.35304 | 39050 ft | 469 kts | 131° |
| 2026-04-26 12:12 | 42.50538 | 20.42091 | 39063 ft | 471 kts | 131° |
| 2026-04-26 12:12 | 42.46352 | 20.48917 | 39061 ft | 472 kts | 131° |
| 2026-04-26 12:13 | 42.42148 | 20.55759 | 39064 ft | 473 kts | 131° |
| 2026-04-26 12:13 | 42.37934 | 20.62599 | 39061 ft | 473 kts | 131° |
| 2026-04-26 12:14 | 42.33753 | 20.69370 | 39062 ft | 472 kts | 131° |
| 2026-04-26 12:14 | 42.29538 | 20.76181 | 39062 ft | 473 kts | 131° |
| 2026-04-26 12:15 | 42.25319 | 20.82982 | 39065 ft | 473 kts | 131° |
| 2026-04-26 12:15 | 42.21096 | 20.89775 | 38888 ft | 472 kts | 131° |
| 2026-04-26 12:15 | 42.18984 | 20.93168 | 38645 ft | 472 kts | 131° |
| 2026-04-26 12:16 | 42.16876 | 20.96549 | 38372 ft | 472 kts | 131° |
| 2026-04-26 12:16 | 42.14760 | 20.99937 | 38083 ft | 472 kts | 131° |
| 2026-04-26 12:16 | 42.12642 | 21.03327 | 37801 ft | 472 kts | 131° |
| 2026-04-26 12:16 | 42.10467 | 21.06547 | 37528 ft | 471 kts | 137° |
| 2026-04-26 12:17 | 42.08085 | 21.09597 | 37229 ft | 473 kts | 139° |
| 2026-04-26 12:17 | 42.05692 | 21.12619 | 36585 ft | 478 kts | 139° |
| 2026-04-26 12:17 | 42.03255 | 21.15710 | 35740 ft | 481 kts | 138° |
| 2026-04-26 12:17 | 42.00822 | 21.18799 | 35014 ft | 481 kts | 138° |
| 2026-04-26 12:18 | 41.98395 | 21.21878 | 34273 ft | 482 kts | 138° |
| 2026-04-26 12:18 | 41.95945 | 21.24982 | 33421 ft | 484 kts | 138° |
| 2026-04-26 12:18 | 41.93494 | 21.28083 | 32645 ft | 483 kts | 138° |
| 2026-04-26 12:18 | 41.91084 | 21.31127 | 31831 ft | 483 kts | 138° |
| 2026-04-26 12:19 | 41.88636 | 21.34216 | 31141 ft | 481 kts | 138° |
| 2026-04-26 12:19 | 41.86244 | 21.37232 | 30592 ft | 475 kts | 138° |
| 2026-04-26 12:19 | 41.83858 | 21.40236 | 29919 ft | 473 kts | 139° |
| 2026-04-26 12:19 | 41.81447 | 21.43268 | 29362 ft | 466 kts | 139° |
| 2026-04-26 12:20 | 41.79095 | 21.46224 | 28788 ft | 461 kts | 139° |
| 2026-04-26 12:20 | 41.76795 | 21.49111 | 28231 ft | 455 kts | 139° |
| 2026-04-26 12:20 | 41.74470 | 21.52025 | 27647 ft | 451 kts | 139° |
| 2026-04-26 12:20 | 41.72192 | 21.54878 | 27095 ft | 447 kts | 139° |
| 2026-04-26 12:21 | 41.69935 | 21.57702 | 26530 ft | 443 kts | 139° |
| 2026-04-26 12:21 | 41.67776 | 21.60399 | 26007 ft | 439 kts | 139° |
| 2026-04-26 12:21 | 41.65828 | 21.62830 | 25524 ft | 436 kts | 139° |
| 2026-04-26 12:21 | 41.63624 | 21.65580 | 24973 ft | 433 kts | 139° |
| 2026-04-26 12:22 | 41.61424 | 21.68321 | 24371 ft | 431 kts | 139° |
| 2026-04-26 12:22 | 41.59243 | 21.71035 | 23862 ft | 428 kts | 138° |
| 2026-04-26 12:22 | 41.57081 | 21.73723 | 23296 ft | 425 kts | 138° |
| 2026-04-26 12:22 | 41.54906 | 21.76426 | 22931 ft | 428 kts | 138° |
| 2026-04-26 12:23 | 41.52708 | 21.79153 | 22660 ft | 434 kts | 138° |
| 2026-04-26 12:23 | 41.50507 | 21.81882 | 22386 ft | 430 kts | 138° |
| 2026-04-26 12:23 | 41.48355 | 21.84548 | 22126 ft | 426 kts | 138° |
| 2026-04-26 12:23 | 41.46193 | 21.87226 | 21874 ft | 424 kts | 138° |
| 2026-04-26 12:24 | 41.44029 | 21.89902 | 21607 ft | 423 kts | 138° |
| 2026-04-26 12:24 | 41.41884 | 21.92551 | 21349 ft | 421 kts | 138° |
| 2026-04-26 12:24 | 41.39736 | 21.95202 | 21099 ft | 419 kts | 138° |
| 2026-04-26 12:25 | 41.35475 | 22.00454 | 20594 ft | 415 kts | 138° |
| 2026-04-26 12:25 | 41.33357 | 22.03062 | 20348 ft | 414 kts | 138° |
| 2026-04-26 12:25 | 41.31276 | 22.05620 | 20104 ft | 412 kts | 138° |
| 2026-04-26 12:25 | 41.29176 | 22.08200 | 19740 ft | 412 kts | 137° |
| 2026-04-26 12:26 | 41.27072 | 22.10784 | 19252 ft | 410 kts | 137° |
| 2026-04-26 12:26 | 41.24997 | 22.13329 | 18849 ft | 403 kts | 137° |
| 2026-04-26 12:26 | 41.22960 | 22.15824 | 18127 ft | 396 kts | 137° |
| 2026-04-26 12:26 | 41.20948 | 22.18287 | 17592 ft | 391 kts | 137° |
| 2026-04-26 12:27 | 41.18957 | 22.20723 | 17083 ft | 386 kts | 137° |
| 2026-04-26 12:27 | 41.16900 | 22.22977 | 16575 ft | 383 kts | 145° |
| 2026-04-26 12:27 | 41.14635 | 22.24792 | 16073 ft | 379 kts | 154° |
| 2026-04-26 12:27 | 41.12230 | 22.26161 | 15578 ft | 373 kts | 159° |
| 2026-04-26 12:28 | 41.09829 | 22.27431 | 15085 ft | 370 kts | 158° |
| 2026-04-26 12:28 | 41.07477 | 22.28690 | 14601 ft | 369 kts | 158° |
| 2026-04-26 12:28 | 41.05100 | 22.29968 | 14114 ft | 367 kts | 158° |
| 2026-04-26 12:28 | 41.02739 | 22.31239 | 13577 ft | 366 kts | 158° |
| 2026-04-26 12:29 | 41.00394 | 22.32503 | 13117 ft | 361 kts | 157° |
| 2026-04-26 12:29 | 40.98087 | 22.33744 | 12640 ft | 357 kts | 157° |
| 2026-04-26 12:29 | 40.93519 | 22.36197 | 11511 ft | 356 kts | 157° |
| 2026-04-26 12:30 | 40.91265 | 22.37405 | 10784 ft | 352 kts | 157° |
| 2026-04-26 12:30 | 40.88996 | 22.38621 | 10304 ft | 343 kts | 157° |
| 2026-04-26 12:30 | 40.86859 | 22.39767 | 10182 ft | 330 kts | 157° |
| 2026-04-26 12:31 | 40.82754 | 22.41957 | 9934 ft | 306 kts | 157° |
| 2026-04-26 12:31 | 40.80797 | 22.43006 | 9643 ft | 300 kts | 157° |
| 2026-04-26 12:31 | 40.78875 | 22.44042 | 9224 ft | 297 kts | 155° |
| 2026-04-26 12:31 | 40.77162 | 22.45503 | 8836 ft | 290 kts | 135° |
| 2026-04-26 12:32 | 40.75921 | 22.47537 | 8508 ft | 282 kts | 120° |
| 2026-04-26 12:32 | 40.74879 | 22.49721 | 8181 ft | 280 kts | 120° |
| 2026-04-26 12:32 | 40.72786 | 22.54049 | 7510 ft | 279 kts | 121° |
| 2026-04-26 12:33 | 40.71762 | 22.56154 | 7312 ft | 272 kts | 121° |
| 2026-04-26 12:33 | 40.70761 | 22.58207 | 7224 ft | 261 kts | 121° |
| 2026-04-26 12:33 | 40.69801 | 22.60179 | 7140 ft | 250 kts | 121° |
| 2026-04-26 12:33 | 40.68890 | 22.62053 | 7006 ft | 235 kts | 120° |
| 2026-04-26 12:34 | 40.68043 | 22.63788 | 6952 ft | 214 kts | 120° |
| 2026-04-26 12:34 | 40.67500 | 22.65465 | 6837 ft | 185 kts | 92° |
| 2026-04-26 12:34 | 40.67681 | 22.66987 | 6703 ft | 157 kts | 60° |
| 2026-04-26 12:34 | 40.68146 | 22.68186 | 6505 ft | 141 kts | 58° |
| 2026-04-26 12:35 | 40.68581 | 22.69338 | 6189 ft | 141 kts | 58° |
| 2026-04-26 12:35 | 40.69008 | 22.70475 | 5856 ft | 140 kts | 58° |
| 2026-04-26 12:35 | 40.69440 | 22.71628 | 5557 ft | 139 kts | 58° |
| 2026-04-26 12:35 | 40.69876 | 22.72772 | 5242 ft | 140 kts | 58° |
| 2026-04-26 12:36 | 40.70314 | 22.73916 | 4972 ft | 139 kts | 58° |
| 2026-04-26 12:36 | 40.70750 | 22.75054 | 4753 ft | 140 kts | 58° |
| 2026-04-26 12:36 | 40.71188 | 22.76194 | 4586 ft | 139 kts | 58° |
| 2026-04-26 12:36 | 40.71622 | 22.77333 | 4365 ft | 138 kts | 58° |
| 2026-04-26 12:37 | 40.72057 | 22.78470 | 4143 ft | 138 kts | 58° |
| 2026-04-26 12:37 | 40.72484 | 22.79595 | 3890 ft | 139 kts | 58° |
| 2026-04-26 12:37 | 40.72916 | 22.80726 | 3688 ft | 137 kts | 58° |
| 2026-04-26 12:37 | 40.73347 | 22.81856 | 3514 ft | 141 kts | 58° |
| 2026-04-26 12:38 | 40.73788 | 22.83004 | 3336 ft | 139 kts | 58° |
| 2026-04-26 12:38 | 40.74222 | 22.84145 | 3149 ft | 138 kts | 60° |
| 2026-04-26 12:38 | 40.74547 | 22.85347 | 2992 ft | 144 kts | 75° |
| 2026-04-26 12:38 | 40.74594 | 22.86682 | 2856 ft | 148 kts | 93° |
| 2026-04-26 12:39 | 40.74345 | 22.87976 | 2664 ft | 146 kts | 111° |
| 2026-04-26 12:39 | 40.73841 | 22.89101 | 2535 ft | 142 kts | 130° |
| 2026-04-26 12:39 | 40.73131 | 22.89893 | 2577 ft | 135 kts | 151° |
| 2026-04-26 12:39 | 40.72209 | 22.90414 | 2555 ft | 151 kts | 164° |
| 2026-04-26 12:40 | 40.71239 | 22.90762 | 2541 ft | 138 kts | 169° |
| 2026-04-26 12:40 | 40.70294 | 22.91063 | 2556 ft | 144 kts | 168° |
| 2026-04-26 12:40 | 40.69330 | 22.91377 | 2563 ft | 141 kts | 169° |
| 2026-04-26 12:40 | 40.68378 | 22.91698 | 2562 ft | 143 kts | 168° |
| 2026-04-26 12:41 | 40.67426 | 22.92007 | 2568 ft | 142 kts | 168° |
| 2026-04-26 12:41 | 40.66466 | 22.92323 | 2557 ft | 141 kts | 169° |
| 2026-04-26 12:41 | 40.65500 | 22.92640 | 2499 ft | 146 kts | 169° |
| 2026-04-26 12:41 | 40.64512 | 22.92967 | 2320 ft | 145 kts | 169° |
| 2026-04-26 12:42 | 40.63545 | 22.93283 | 2109 ft | 140 kts | 168° |
| 2026-04-26 12:42 | 40.62618 | 22.93589 | 1939 ft | 137 kts | 168° |
| 2026-04-26 12:42 | 40.61683 | 22.93896 | 1761 ft | 139 kts | 168° |
| 2026-04-26 12:42 | 40.60736 | 22.94208 | 1586 ft | 141 kts | 168° |
| 2026-04-26 12:43 | 40.59792 | 22.94517 | 1389 ft | 137 kts | 168° |
| 2026-04-26 12:43 | 40.58881 | 22.94816 | 1216 ft | 137 kts | 168° |
| 2026-04-26 12:43 | 40.57964 | 22.95116 | 1034 ft | 135 kts | 169° |
| 2026-04-26 12:43 | 40.57056 | 22.95416 | 867 ft | 135 kts | 168° |
| 2026-04-26 12:44 | 40.56157 | 22.95709 | 683 ft | 132 kts | 167° |
| 2026-04-26 12:44 | 40.55266 | 22.96001 | 510 ft | 131 kts | 168° |
| 2026-04-26 12:44 | 40.54362 | 22.96298 | 334 ft | 137 kts | 169° |
| 2026-04-26 12:44 | 40.53439 | 22.96602 | 155 ft | 133 kts | 169° |
| 2026-04-26 12:45 | 40.52575 | 22.96882 | 53 ft | 132 kts | 170° |
| 2026-04-26 12:45 | 40.51688 | 22.97164 | 29 ft | 123 kts | 169° |
| 2026-04-26 12:45 | 40.51210 | 22.97325 | 30 ft | 40 kts | 161° |
| 2026-04-26 12:45 | 40.50991 | 22.97409 | 30 ft | 20 kts | 153° |
| 2026-04-26 12:46 | 40.50975 | 22.97543 | 30 ft | 13 kts | 56° |
| 2026-04-26 12:46 | 40.51063 | 22.97565 | 30 ft | 15 kts | 348° |
| 2026-04-26 12:46 | 40.51174 | 22.97532 | 30 ft | 18 kts | 347° |
| 2026-04-26 12:46 | 40.51195 | 22.97526 | 30 ft | 0 kts | 347° |